createdAt,value
2022-10-31T00:01:58.075Z,15.80
2022-10-31T00:04:26.693Z,15.90
2022-10-31T00:06:55.139Z,15.80
2022-10-31T00:09:23.586Z,15.90
2022-10-31T00:11:52.029Z,15.70
2022-10-31T00:14:20.493Z,15.70
2022-10-31T00:16:50.339Z,15.80
2022-10-31T00:19:19.550Z,15.80
2022-10-31T00:21:48.269Z,15.60
2022-10-31T00:24:17.717Z,15.50
2022-10-31T00:26:46.160Z,15.60
2022-10-31T00:29:14.923Z,15.70
2022-10-31T00:31:43.491Z,15.70
2022-10-31T00:34:13.409Z,15.70
2022-10-31T00:36:41.813Z,15.60
2022-10-31T00:39:14.323Z,15.60
2022-10-31T00:41:43.790Z,15.60
2022-10-31T00:44:14.410Z,15.60
2022-10-31T00:46:42.856Z,15.60
2022-10-31T00:49:13.349Z,15.60
2022-10-31T00:51:42.016Z,15.50
2022-10-31T00:54:10.621Z,15.50
2022-10-31T00:56:39.356Z,15.60
2022-10-31T00:59:07.847Z,15.60
2022-10-31T01:01:37.644Z,15.60
2022-10-31T01:04:06.580Z,15.50
2022-10-31T01:06:36.428Z,15.40
2022-10-31T01:09:04.975Z,15.50
2022-10-31T01:11:33.462Z,15.40
2022-10-31T01:14:01.914Z,15.30
2022-10-31T01:16:33.287Z,15.40
2022-10-31T01:19:01.714Z,15.40
2022-10-31T01:21:31.489Z,15.50
2022-10-31T01:24:03.346Z,15.50
2022-10-31T01:26:33.502Z,15.50
2022-10-31T01:29:03.403Z,15.40
2022-10-31T01:31:34.168Z,15.40
2022-10-31T01:34:02.818Z,15.30
2022-10-31T01:36:33.506Z,15.40
2022-10-31T01:39:07.422Z,15.40
2022-10-31T01:41:38.414Z,15.40
2022-10-31T01:44:40.423Z,15.40
2022-10-31T01:47:14.648Z,15.40
2022-10-31T01:49:49.124Z,15.30
2022-10-31T01:52:24.861Z,15.30
2022-10-31T01:55:00.828Z,15.30
2022-10-31T01:57:31.360Z,15.40
2022-10-31T02:00:03.028Z,15.30
2022-10-31T02:02:42.283Z,15.20
2022-10-31T02:05:16.936Z,15.30
2022-10-31T02:07:52.235Z,15.30
2022-10-31T02:10:24.712Z,15.30
2022-10-31T02:12:56.269Z,15.20
2022-10-31T02:15:25.153Z,15.10
2022-10-31T02:17:55.022Z,15.00
2022-10-31T02:20:26.005Z,15.00
2022-10-31T02:23:17.261Z,14.90
2022-10-31T02:26:21.771Z,14.90
2022-10-31T02:29:12.783Z,15.00
2022-10-31T02:31:48.677Z,14.90
2022-10-31T02:34:21.689Z,15.00
2022-10-31T02:36:57.691Z,15.00
2022-10-31T02:39:28.718Z,15.00
2022-10-31T02:42:06.922Z,14.80
2022-10-31T02:44:40.711Z,14.80
2022-10-31T02:47:14.473Z,14.80
2022-10-31T02:49:47.354Z,14.80
2022-10-31T02:52:19.794Z,14.80
2022-10-31T02:54:49.781Z,14.80
2022-10-31T02:57:23.249Z,14.80
2022-10-31T02:59:56.255Z,14.80
2022-10-31T03:02:53.021Z,14.90
2022-10-31T03:05:39.373Z,14.80
2022-10-31T03:08:18.134Z,14.80
2022-10-31T03:10:55.145Z,14.70
2022-10-31T03:13:30.736Z,14.50
2022-10-31T03:16:10.144Z,14.60
2022-10-31T03:18:43.043Z,14.60
2022-10-31T03:21:16.522Z,14.70
2022-10-31T03:23:48.459Z,14.50
2022-10-31T03:26:23.529Z,14.50
2022-10-31T03:28:56.291Z,14.50
2022-10-31T03:31:29.802Z,14.50
2022-10-31T03:34:03.401Z,14.40
2022-10-31T03:36:34.791Z,14.40
2022-10-31T03:39:05.670Z,14.50
2022-10-31T03:41:38.896Z,14.60
2022-10-31T03:44:16.952Z,14.60
2022-10-31T03:46:51.286Z,14.50
2022-10-31T03:49:21.755Z,14.40
2022-10-31T03:51:57.232Z,14.30
2022-10-31T03:54:32.599Z,14.30
2022-10-31T03:57:09.099Z,14.20
2022-10-31T03:59:41.958Z,14.40
2022-10-31T04:02:16.656Z,14.40
2022-10-31T04:04:51.123Z,14.40
2022-10-31T04:07:21.616Z,14.30
2022-10-31T04:09:54.024Z,14.20
2022-10-31T04:12:26.272Z,14.10
2022-10-31T04:14:56.949Z,14.00
2022-10-31T04:17:29.202Z,14.10
2022-10-31T04:20:02.171Z,14.10
2022-10-31T04:22:31.520Z,14.10
2022-10-31T04:24:59.956Z,14.10
2022-10-31T04:27:29.586Z,14.10
2022-10-31T04:29:58.079Z,14.10
2022-10-31T04:32:26.640Z,14.20
2022-10-31T04:34:58.030Z,14.40
2022-10-31T04:37:26.620Z,14.30
2022-10-31T04:39:55.345Z,14.40
2022-10-31T04:42:59.805Z,14.40
2022-10-31T04:45:30.711Z,14.40
2022-10-31T04:48:02.085Z,14.40
2022-10-31T04:50:39.849Z,14.50
2022-10-31T04:53:09.618Z,14.50
2022-10-31T04:55:49.327Z,14.30
2022-10-31T04:58:24.748Z,14.40
2022-10-31T05:00:55.283Z,14.30
2022-10-31T05:03:24.229Z,14.40
2022-10-31T05:05:54.139Z,14.40
2022-10-31T05:08:22.708Z,14.50
2022-10-31T05:10:53.810Z,14.50
2022-10-31T05:13:23.386Z,14.40
2022-10-31T05:16:28.178Z,14.40
2022-10-31T05:19:15.601Z,14.50
2022-10-31T05:22:04.168Z,14.30
2022-10-31T05:24:35.178Z,14.30
2022-10-31T05:27:03.656Z,14.30
2022-10-31T05:29:34.404Z,14.40
2022-10-31T05:32:05.027Z,14.40
2022-10-31T05:34:53.719Z,14.50
2022-10-31T05:37:50.170Z,14.40
2022-10-31T05:40:20.492Z,14.40
2022-10-31T05:42:52.938Z,14.50
2022-10-31T05:45:24.423Z,14.60
2022-10-31T05:47:59.894Z,14.50
2022-10-31T05:50:50.547Z,14.50
2022-10-31T05:53:20.569Z,14.50
2022-10-31T05:55:50.670Z,14.50
2022-10-31T05:58:21.830Z,14.60
2022-10-31T06:00:58.596Z,14.70
2022-10-31T06:03:27.228Z,14.80
2022-10-31T06:05:58.201Z,14.90
2022-10-31T06:08:33.299Z,15.10
2022-10-31T06:11:07.019Z,15.50
2022-10-31T06:13:53.932Z,15.60
2022-10-31T06:16:27.075Z,15.60
2022-10-31T06:18:58.909Z,15.40
2022-10-31T06:21:28.271Z,15.40
2022-10-31T06:23:58.294Z,15.50
2022-10-31T06:26:53.246Z,15.60
2022-10-31T06:29:22.779Z,15.60
2022-10-31T06:32:13.313Z,15.70
2022-10-31T06:34:45.438Z,15.90
2022-10-31T06:37:15.091Z,15.80
2022-10-31T06:39:48.237Z,15.90
2022-10-31T06:42:18.834Z,15.90
2022-10-31T06:44:48.085Z,15.80
2022-10-31T06:48:15.577Z,15.90
2022-10-31T06:50:54.681Z,16.10
2022-10-31T06:53:25.856Z,16.10
2022-10-31T06:55:57.634Z,16.10
2022-10-31T06:58:26.553Z,16.20
2022-10-31T07:01:01.742Z,16.40
2022-10-31T07:03:30.588Z,16.50
2022-10-31T07:05:59.728Z,16.70
2022-10-31T07:08:29.884Z,16.60
2022-10-31T07:11:00.199Z,16.80
2022-10-31T07:13:30.981Z,16.90
2022-10-31T07:16:08.393Z,17.20
2022-10-31T07:18:38.837Z,17.30
2022-10-31T07:21:07.904Z,17.30
2022-10-31T07:23:36.439Z,17.40
2022-10-31T07:26:27.121Z,17.50
2022-10-31T07:28:55.717Z,17.60
2022-10-31T07:31:26.803Z,17.70
2022-10-31T07:34:01.591Z,17.80
2022-10-31T07:36:30.068Z,18.00
2022-10-31T07:39:04.749Z,18.30
2022-10-31T07:41:37.527Z,18.30
2022-10-31T07:44:07.161Z,18.50
2022-10-31T07:47:14.114Z,18.50
2022-10-31T07:50:09.981Z,18.60
2022-10-31T07:53:17.583Z,18.80
2022-10-31T07:55:55.890Z,18.90
2022-10-31T07:58:32.100Z,19.00
2022-10-31T08:01:01.365Z,19.10
2022-10-31T08:03:40.173Z,19.20
2022-10-31T08:06:12.125Z,19.30
2022-10-31T08:08:47.553Z,19.40
2022-10-31T08:11:16.281Z,19.40
2022-10-31T08:13:46.441Z,19.50
2022-10-31T08:16:16.833Z,19.70
2022-10-31T08:18:54.564Z,19.70
2022-10-31T08:21:24.867Z,19.70
2022-10-31T08:23:53.350Z,19.80
2022-10-31T08:26:25.207Z,19.90
2022-10-31T08:28:57.503Z,20.00
2022-10-31T08:31:33.800Z,20.10
2022-10-31T08:34:41.996Z,20.20
2022-10-31T08:37:29.259Z,20.30
2022-10-31T08:39:58.333Z,20.50
2022-10-31T08:42:26.932Z,20.50
2022-10-31T08:44:56.862Z,20.60
2022-10-31T08:47:25.673Z,20.70
2022-10-31T08:49:55.452Z,20.80
2022-10-31T08:52:51.106Z,20.80
2022-10-31T08:55:16.684Z,20.90
2022-10-31T08:58:05.193Z,21.00
2022-10-31T09:00:44.564Z,21.00
2022-10-31T09:03:19.586Z,21.00
2022-10-31T09:05:48.699Z,21.10
2022-10-31T09:08:18.045Z,21.10
2022-10-31T09:10:48.740Z,21.20
2022-10-31T09:13:27.366Z,21.20
2022-10-31T09:16:24.083Z,21.20
2022-10-31T09:18:52.608Z,21.30
2022-10-31T09:21:21.038Z,21.30
2022-10-31T09:23:51.448Z,21.30
2022-10-31T09:26:19.882Z,21.30
2022-10-31T09:28:58.743Z,21.30
2022-10-31T09:31:29.185Z,21.40
2022-10-31T09:34:05.747Z,21.30
2022-10-31T09:36:40.737Z,21.40
2022-10-31T09:39:13.971Z,21.40
2022-10-31T09:42:09.926Z,21.50
2022-10-31T09:44:52.970Z,21.50
2022-10-31T09:48:17.873Z,21.50
2022-10-31T09:51:05.470Z,21.50
2022-10-31T09:53:44.886Z,21.60
2022-10-31T09:56:22.730Z,21.70
2022-10-31T09:58:56.854Z,21.70
2022-10-31T10:01:40.403Z,21.80
2022-10-31T10:04:28.542Z,21.90
2022-10-31T10:07:10.058Z,22.00
2022-10-31T10:09:48.065Z,22.20
2022-10-31T10:12:47.977Z,22.40
2022-10-31T10:15:44.439Z,22.50
2022-10-31T10:18:23.478Z,22.60
2022-10-31T10:21:04.747Z,22.60
2022-10-31T10:23:47.436Z,22.70
2022-10-31T10:26:20.183Z,22.70
2022-10-31T10:28:53.324Z,22.80
2022-10-31T10:31:26.319Z,22.80
2022-10-31T10:34:04.190Z,22.90
2022-10-31T10:36:40.947Z,23.10
2022-10-31T10:39:17.117Z,23.30
2022-10-31T10:42:03.063Z,23.30
2022-10-31T10:44:48.844Z,23.40
2022-10-31T10:47:35.658Z,23.50
2022-10-31T10:50:08.885Z,23.60
2022-10-31T10:52:51.057Z,23.60
2022-10-31T10:55:31.592Z,23.80
2022-10-31T10:58:03.986Z,24.00
2022-10-31T11:00:38.450Z,24.10
2022-10-31T11:03:07.525Z,24.10
2022-10-31T11:05:39.785Z,24.10
2022-10-31T11:08:10.045Z,24.30
2022-10-31T11:10:38.709Z,24.40
2022-10-31T11:13:20.444Z,24.40
2022-10-31T11:15:59.078Z,24.30
2022-10-31T11:18:29.631Z,24.40
2022-10-31T11:21:00.691Z,24.40
2022-10-31T11:23:31.640Z,24.60
2022-10-31T11:26:01.466Z,24.80
2022-10-31T11:28:31.575Z,25.00
2022-10-31T11:31:01.959Z,25.00
2022-10-31T11:33:34.491Z,25.30
2022-10-31T11:36:04.676Z,25.50
2022-10-31T11:38:45.671Z,25.50
2022-10-31T11:41:17.799Z,25.60
2022-10-31T11:43:51.953Z,25.70
2022-10-31T11:46:26.716Z,25.80
2022-10-31T11:48:58.145Z,25.80
2022-10-31T11:51:29.761Z,25.70
2022-10-31T11:54:03.523Z,25.80
2022-10-31T11:56:41.210Z,25.90
2022-10-31T11:59:20.532Z,25.90
2022-10-31T12:01:51.258Z,26.30
2022-10-31T12:04:20.452Z,26.40
2022-10-31T12:06:51.135Z,26.50
2022-10-31T12:09:24.526Z,27.10
2022-10-31T12:12:16.606Z,27.20
2022-10-31T12:14:54.359Z,28.10
2022-10-31T12:17:25.843Z,28.90
2022-10-31T12:20:05.854Z,29.30
2022-10-31T12:22:43.586Z,30.70
2022-10-31T12:25:31.694Z,31.40
2022-10-31T12:28:27.739Z,33.10
2022-10-31T12:31:08.842Z,33.80
2022-10-31T12:33:53.094Z,33.60
2022-10-31T12:36:38.888Z,33.70
2022-10-31T12:39:27.030Z,34.10
2022-10-31T12:42:05.297Z,34.30
2022-10-31T12:44:50.970Z,34.20
2022-10-31T12:48:06.533Z,34.60
2022-10-31T12:50:49.757Z,35.80
2022-10-31T12:53:30.575Z,36.40
2022-10-31T12:56:13.589Z,37.80
2022-10-31T12:58:49.361Z,37.90
2022-10-31T13:01:22.319Z,38.90
2022-10-31T13:03:55.386Z,39.60
2022-10-31T13:06:29.614Z,38.40
2022-10-31T13:09:02.219Z,36.20
2022-10-31T13:11:34.641Z,34.20
2022-10-31T13:14:09.678Z,32.40
2022-10-31T13:16:42.324Z,31.20
2022-10-31T13:19:18.309Z,30.20
2022-10-31T13:21:57.522Z,29.20
2022-10-31T13:24:36.996Z,28.60
2022-10-31T13:27:15.317Z,28.10
2022-10-31T13:29:52.588Z,27.60
2022-10-31T13:39:28.354Z,26.90
2022-10-31T13:42:03.905Z,26.40
2022-10-31T13:44:41.436Z,26.20
2022-10-31T13:47:25.027Z,26.10
2022-10-31T13:49:53.760Z,25.90
2022-10-31T13:52:28.235Z,25.80
2022-10-31T13:54:58.200Z,25.70
2022-10-31T13:57:37.112Z,25.40
2022-10-31T14:00:23.781Z,25.30
2022-10-31T14:02:55.341Z,25.20
2022-10-31T14:05:27.372Z,25.10
2022-10-31T14:07:57.089Z,25.10
2022-10-31T14:10:30.071Z,25.10
2022-10-31T14:13:08.248Z,25.20
2022-10-31T14:15:37.689Z,25.20
2022-10-31T14:18:08.900Z,25.20
2022-10-31T14:20:40.799Z,25.30
2022-10-31T14:23:36.815Z,25.20
2022-10-31T14:26:39.824Z,25.10
2022-10-31T14:29:29.090Z,24.90
2022-10-31T14:32:03.372Z,24.90
2022-10-31T14:34:35.959Z,25.00
2022-10-31T14:37:40.789Z,25.00
2022-10-31T14:40:32.826Z,25.00
2022-10-31T14:43:21.992Z,25.10
2022-10-31T14:45:59.774Z,25.00
2022-10-31T14:48:45.211Z,24.90
2022-10-31T14:51:17.418Z,24.70
2022-10-31T14:53:50.715Z,24.50
2022-10-31T14:56:25.941Z,24.40
2022-10-31T14:58:58.835Z,24.40
2022-10-31T15:01:30.079Z,24.30
2022-10-31T15:04:22.424Z,24.10
2022-10-31T15:06:55.077Z,23.90
2022-10-31T15:09:25.348Z,23.90
2022-10-31T15:11:54.030Z,23.90
2022-10-31T15:14:29.960Z,23.80
2022-10-31T15:17:00.212Z,23.60
2022-10-31T15:19:31.309Z,23.50
2022-10-31T15:22:00.887Z,23.70
2022-10-31T15:24:35.487Z,23.50
2022-10-31T15:27:05.581Z,23.30
2022-10-31T15:29:35.552Z,23.30
2022-10-31T15:32:20.486Z,23.00
2022-10-31T15:34:49.902Z,22.90
2022-10-31T15:37:19.894Z,23.00
2022-10-31T15:39:50.456Z,22.90
2022-10-31T15:42:25.633Z,22.90
2022-10-31T15:45:02.684Z,22.90
2022-10-31T15:47:33.316Z,22.80
2022-10-31T15:50:03.708Z,22.70
2022-10-31T15:52:34.885Z,22.50
2022-10-31T15:55:07.566Z,22.30
2022-10-31T15:57:41.014Z,22.30
2022-10-31T16:00:25.670Z,22.30
2022-10-31T16:03:07.362Z,22.20
2022-10-31T16:05:41.315Z,22.10
2022-10-31T16:08:34.059Z,22.00
2022-10-31T16:11:17.981Z,21.90
2022-10-31T16:13:57.544Z,21.80
2022-10-31T16:16:35.181Z,21.90
2022-10-31T16:19:07.268Z,21.80
2022-10-31T16:21:39.281Z,21.60
2022-10-31T16:24:19.318Z,21.60
2022-10-31T16:26:53.673Z,21.50
2022-10-31T16:29:34.962Z,21.50
2022-10-31T16:32:06.881Z,21.40
2022-10-31T16:34:35.440Z,21.20
2022-10-31T16:37:04.614Z,21.20
2022-10-31T16:39:33.240Z,21.10
2022-10-31T16:42:01.748Z,21.00
2022-10-31T16:44:30.369Z,20.90
2022-10-31T16:47:14.773Z,20.90
2022-10-31T16:49:43.700Z,20.80
2022-10-31T16:52:12.283Z,20.70
2022-10-31T16:54:41.189Z,20.70
2022-10-31T16:57:15.835Z,20.60
2022-10-31T16:59:46.216Z,20.50
2022-10-31T17:02:18.946Z,20.40
2022-10-31T17:04:49.661Z,20.20
2022-10-31T17:07:21.037Z,20.10
2022-10-31T17:09:50.013Z,20.20
2022-10-31T17:12:20.974Z,20.00
2022-10-31T17:14:52.381Z,19.80
2022-10-31T17:17:22.286Z,20.00
2022-10-31T17:19:51.231Z,20.00
2022-10-31T17:22:20.573Z,20.00
2022-10-31T17:24:51.227Z,19.80
2022-10-31T17:27:19.840Z,19.70
2022-10-31T17:29:48.461Z,19.70
2022-10-31T17:32:19.315Z,19.70
2022-10-31T17:34:49.211Z,19.70
2022-10-31T17:37:17.693Z,19.40
2022-10-31T17:39:46.241Z,19.40
2022-10-31T17:42:15.728Z,19.50
2022-10-31T17:44:46.121Z,19.30
2022-10-31T17:47:15.486Z,19.30
2022-10-31T17:49:46.498Z,19.40
2022-10-31T17:52:17.543Z,19.40
2022-10-31T17:54:47.773Z,19.30
2022-10-31T17:57:16.973Z,19.30
2022-10-31T17:59:45.694Z,19.30
2022-10-31T18:02:14.710Z,19.20
2022-10-31T18:04:43.540Z,19.10
2022-10-31T18:07:12.271Z,19.00
2022-10-31T18:09:43.333Z,19.10
2022-10-31T18:12:12.187Z,19.10
2022-10-31T18:14:44.597Z,19.10
2022-10-31T18:17:16.185Z,19.00
2022-10-31T18:19:45.865Z,19.00
2022-10-31T18:22:15.635Z,18.90
2022-10-31T18:24:46.636Z,18.70
2022-10-31T18:27:16.217Z,18.60
2022-10-31T18:29:44.679Z,18.70
2022-10-31T18:32:13.176Z,18.80
2022-10-31T18:34:42.651Z,18.80
2022-10-31T18:37:12.822Z,18.80
2022-10-31T18:39:41.363Z,18.80
2022-10-31T18:42:13.404Z,18.80
2022-10-31T18:44:41.959Z,18.80
2022-10-31T18:47:12.517Z,18.80
2022-10-31T18:49:41.041Z,18.70
2022-10-31T18:52:09.491Z,18.70
2022-10-31T18:54:38.068Z,18.60
2022-10-31T18:57:06.613Z,18.50
2022-10-31T18:59:36.520Z,18.60
2022-10-31T19:02:05.062Z,18.60
2022-10-31T19:04:35.893Z,18.60
2022-10-31T19:07:04.397Z,18.60
2022-10-31T19:09:35.127Z,18.40
2022-10-31T19:12:03.702Z,18.40
2022-10-31T19:14:32.196Z,18.30
2022-10-31T19:17:03.387Z,18.20
2022-10-31T19:19:32.119Z,18.10
2022-10-31T19:22:01.845Z,18.20
2022-10-31T19:24:30.360Z,18.20
2022-10-31T19:27:00.710Z,18.30
2022-10-31T19:29:29.301Z,18.30
2022-10-31T19:31:57.844Z,18.40
2022-10-31T19:34:28.182Z,18.40
2022-10-31T19:37:00.654Z,18.30
2022-10-31T19:39:30.200Z,18.20
2022-10-31T19:41:58.706Z,18.10
2022-10-31T19:44:27.319Z,18.10
2022-10-31T19:46:55.801Z,18.00
2022-10-31T19:49:24.998Z,18.00
2022-10-31T19:51:57.454Z,18.00
2022-10-31T19:54:26.078Z,18.10
2022-10-31T19:56:56.226Z,18.20
2022-10-31T19:59:25.136Z,18.10
2022-10-31T20:01:53.707Z,18.00
2022-10-31T20:04:22.649Z,17.90
2022-10-31T20:06:58.537Z,18.00
2022-10-31T20:09:28.531Z,17.90
2022-10-31T20:11:56.997Z,17.90
2022-10-31T20:14:25.473Z,18.00
2022-10-31T20:16:55.117Z,18.00
2022-10-31T20:19:24.904Z,17.90
2022-10-31T20:21:53.681Z,17.90
2022-10-31T20:24:22.348Z,17.80
2022-10-31T20:26:52.229Z,17.70
2022-10-31T20:29:20.755Z,17.90
2022-10-31T20:31:49.346Z,17.90
2022-10-31T20:34:25.508Z,17.80
2022-10-31T20:36:54.087Z,17.80
2022-10-31T20:39:22.565Z,17.70
2022-10-31T20:41:55.048Z,17.50
2022-10-31T20:44:23.985Z,17.50
2022-10-31T20:46:54.861Z,17.50
2022-10-31T20:49:23.472Z,17.40
2022-10-31T20:51:53.979Z,17.40
2022-10-31T20:54:28.051Z,17.40
2022-10-31T20:56:59.534Z,17.50
2022-10-31T20:59:47.091Z,17.50
2022-10-31T21:02:18.689Z,17.60
2022-10-31T21:04:47.378Z,17.50
2022-10-31T21:07:16.854Z,17.50
2022-10-31T21:09:45.475Z,17.60
2022-10-31T21:12:15.695Z,17.60
2022-10-31T21:14:46.855Z,17.60
2022-10-31T21:17:15.437Z,17.50
2022-10-31T21:19:43.966Z,17.20
2022-10-31T21:22:12.752Z,17.10
2022-10-31T21:24:41.470Z,17.10
2022-10-31T21:27:12.618Z,17.20
2022-10-31T21:29:42.645Z,17.20
2022-10-31T21:32:11.162Z,17.30
2022-10-31T21:34:39.674Z,17.40
2022-10-31T21:37:08.201Z,17.60
2022-10-31T21:39:38.661Z,17.60
2022-10-31T21:42:07.257Z,17.50
2022-10-31T21:44:35.761Z,17.40
2022-10-31T21:47:11.074Z,17.30
2022-10-31T21:49:39.588Z,17.30
2022-10-31T21:52:08.086Z,17.30
2022-10-31T21:54:37.465Z,17.20
2022-10-31T21:57:06.228Z,17.30
2022-10-31T21:59:35.833Z,17.30
2022-10-31T22:02:07.656Z,17.30
2022-10-31T22:04:36.295Z,17.30
2022-10-31T22:07:05.186Z,17.30
2022-10-31T22:09:42.325Z,17.40
2022-10-31T22:12:11.026Z,17.40
2022-10-31T22:14:39.574Z,17.40
2022-10-31T22:17:10.274Z,17.50
2022-10-31T22:19:39.105Z,17.40
2022-10-31T22:22:07.861Z,17.40
2022-10-31T22:24:36.561Z,17.50
2022-10-31T22:27:05.222Z,17.50
2022-10-31T22:29:37.627Z,17.60
2022-10-31T22:32:06.790Z,17.50
2022-10-31T22:34:36.749Z,17.70
2022-10-31T22:37:05.362Z,17.70
2022-10-31T22:39:33.926Z,17.60
2022-10-31T22:42:02.561Z,17.60
2022-10-31T22:44:31.373Z,17.50
2022-10-31T22:46:59.958Z,17.50
2022-10-31T22:49:29.959Z,17.50
2022-10-31T22:52:03.488Z,17.70
2022-10-31T22:54:32.422Z,17.60
2022-10-31T22:57:01.004Z,17.60
2022-10-31T22:59:29.572Z,17.50
2022-10-31T23:01:58.187Z,17.50
2022-10-31T23:04:27.751Z,17.50
2022-10-31T23:06:56.312Z,17.50
2022-10-31T23:09:26.401Z,17.30
2022-10-31T23:12:15.287Z,17.30
2022-10-31T23:14:43.205Z,17.30
2022-10-31T23:17:17.828Z,17.30
2022-10-31T23:19:47.910Z,17.20
2022-10-31T23:22:17.638Z,17.30
2022-10-31T23:24:49.015Z,17.20
2022-10-31T23:27:18.651Z,17.20
2022-10-31T23:29:49.071Z,17.30
2022-10-31T23:32:20.594Z,17.40
2022-10-31T23:34:50.453Z,17.40
2022-10-31T23:37:20.404Z,17.40
2022-10-31T23:39:51.554Z,17.40
2022-10-31T23:42:20.285Z,17.40
2022-10-31T23:44:49.029Z,17.30
2022-10-31T23:47:18.471Z,17.30
2022-10-31T23:49:47.185Z,17.20
2022-10-31T23:52:16.400Z,17.20
2022-10-31T23:54:45.157Z,17.20
2022-10-31T23:57:16.142Z,17.20
2022-10-31T23:59:46.638Z,17.30
